Time;durP1;ratioP1;P1;durP2;ratioP2;P2;SDS_P1;SDS_P2;PMS_P1;PMS_P2;Temp;Humidity;BMP_temperature;BMP_pressure;BME280_temperature;BME280_humidity;BME280_pressure;Samples;Min_cycle;Max_cycle;Signal;HPM_P1;HPM_P2
2022/04/18 00:04:00;;;;;;;10.48;4.43;;;;;;;3.78;62.72;99825.72;8503218;27;20050;-73
2022/04/18 00:08:03;;;;;;;8.52;3.92;;;;;;;3.70;62.86;99820.78;8516820;27;20055;-72
2022/04/18 00:12:04;;;;;;;8.70;4.20;;;;;;;3.66;62.72;99808.97;8496849;27;20103;-72
2022/04/18 00:16:05;;;;;;;10.15;4.03;;;;;;;3.62;62.60;99797.19;8532134;27;20049;-73
2022/04/18 00:20:07;;;;;;;8.07;3.65;;;;;;;3.62;63.03;99802.53;8506613;27;20134;-73
2022/04/18 00:24:11;;;;;;;10.80;3.80;;;;;;;3.67;62.61;99789.25;8472094;27;20047;-73
2022/04/18 00:28:13;;;;;;;8.32;3.45;;;;;;;3.72;62.82;99781.28;8512186;27;20050;-73
2022/04/18 00:32:17;;;;;;;6.70;3.03;;;;;;;3.77;63.28;99777.88;8518769;27;20055;-73
2022/04/18 00:36:18;;;;;;;5.07;2.50;;;;;;;3.83;62.93;99777.69;8549165;27;20043;-72
2022/04/18 00:40:19;;;;;;;6.00;2.97;;;;;;;3.87;62.75;99778.00;8477217;27;20043;-72
2022/04/18 00:44:20;;;;;;;6.28;2.67;;;;;;;3.89;62.62;99769.75;8497301;27;20051;-73
2022/04/18 00:48:21;;;;;;;6.22;2.95;;;;;;;3.87;63.21;99761.16;8500320;27;20051;-72
2022/04/18 00:52:22;;;;;;;7.15;3.00;;;;;;;3.88;63.20;99762.78;8507623;27;20039;-73
2022/04/18 00:56:24;;;;;;;4.57;2.67;;;;;;;3.87;63.22;99761.16;8466108;27;20050;-73
2022/04/18 01:00:24;;;;;;;7.22;2.85;;;;;;;3.93;63.30;99760.16;8506918;27;20070;-73
2022/04/18 01:04:26;;;;;;;5.22;2.80;;;;;;;3.92;62.77;99739.84;8460730;27;20038;-73
2022/04/18 01:08:28;;;;;;;8.50;2.65;;;;;;;3.94;62.74;99740.41;8522042;27;20058;-74
2022/04/18 01:12:29;;;;;;;6.55;2.72;;;;;;;3.94;63.07;99741.22;8516964;27;20039;-73
2022/04/18 01:16:30;;;;;;;5.43;2.72;;;;;;;3.96;63.24;99732.97;8526941;27;20484;-73
2022/04/18 01:20:34;;;;;;;5.68;2.78;;;;;;;3.99;63.66;99737.78;8504289;27;20095;-74
2022/04/18 01:29:01;;;;;;;7.47;3.03;;;;;;;4.00;63.79;99734.06;8477166;27;20548;-73
2022/04/18 01:33:02;;;;;;;9.18;2.90;;;;;;;3.94;63.87;99735.06;8538896;27;20070;-73
2022/04/18 01:37:03;;;;;;;6.55;2.92;;;;;;;3.92;64.08;99726.47;8520434;27;20055;-73
2022/04/18 01:41:04;;;;;;;7.75;2.97;;;;;;;3.87;64.13;99729.09;8498035;27;20051;-72
2022/04/18 01:45:06;;;;;;;6.78;2.83;;;;;;;3.83;64.50;99718.09;8516765;27;20035;-72
2022/04/18 01:49:07;;;;;;;6.28;2.95;;;;;;;3.78;64.48;99716.19;8445978;27;20051;-72
2022/04/18 01:53:08;;;;;;;6.57;3.03;;;;;;;3.73;64.88;99713.44;8521058;27;20046;-73
2022/04/18 01:57:09;;;;;;;6.32;3.00;;;;;;;3.64;64.74;99704.28;8508654;27;20038;-73
2022/04/18 02:01:11;;;;;;;6.45;3.10;;;;;;;3.59;64.89;99712.22;8485146;27;20039;-73
2022/04/18 02:05:11;;;;;;;8.32;3.63;;;;;;;3.50;63.40;99719.03;8490554;27;20134;-73
2022/04/18 02:09:12;;;;;;;9.05;4.22;;;;;;;3.57;62.68;99703.63;8496297;27;20493;-73
2022/04/18 02:13:13;;;;;;;7.80;3.78;;;;;;;3.54;62.01;99709.50;8503129;27;20120;-73
2022/04/18 02:17:14;;;;;;;12.77;4.10;;;;;;;3.43;62.72;99699.72;8524815;27;20046;-73
2022/04/18 02:21:16;;;;;;;9.73;4.18;;;;;;;3.36;61.40;99696.41;8480859;27;20054;-72
2022/04/18 02:25:17;;;;;;;11.88;4.50;;;;;;;3.22;61.61;99695.16;8501384;27;20059;-72
2022/04/18 02:29:18;;;;;;;12.98;4.38;;;;;;;3.00;61.94;99686.31;8523154;27;20456;-73
2022/04/18 02:33:19;;;;;;;11.25;3.88;;;;;;;2.84;61.89;99691.44;8516231;27;20126;-72
2022/04/18 02:37:20;;;;;;;10.60;4.53;;;;;;;2.73;61.89;99670.97;8508432;27;20092;-73
2022/04/18 02:41:21;;;;;;;12.05;4.15;;;;;;;2.64;61.99;99683.13;8494626;27;20107;-73
2022/04/18 02:45:23;;;;;;;11.57;4.13;;;;;;;2.60;61.49;99676.63;8501822;27;20047;-73
2022/04/18 02:49:24;;;;;;;21.48;7.35;;;;;;;2.54;61.12;99682.94;8537244;27;20050;-73
2022/04/18 02:53:24;;;;;;;22.35;7.82;;;;;;;2.54;60.57;99675.75;8523669;27;20058;-73
2022/04/18 02:57:26;;;;;;;15.15;6.60;;;;;;;2.57;60.76;99671.78;8500707;27;20047;-73
2022/04/18 03:01:26;;;;;;;25.33;7.57;;;;;;;2.59;61.24;99664.38;8504140;27;20050;-73
2022/04/18 03:05:27;;;;;;;15.35;6.97;;;;;;;2.56;61.62;99659.50;8510670;27;20054;-73
2022/04/18 03:09:28;;;;;;;17.88;7.30;;;;;;;2.55;62.46;99665.88;8527298;27;20133;-73
2022/04/18 03:13:30;;;;;;;21.52;7.53;;;;;;;2.53;63.00;99660.00;8523050;27;20035;-73
2022/04/18 03:17:31;;;;;;;20.90;8.10;;;;;;;2.43;63.19;99654.53;8526410;27;20141;-72
2022/04/18 03:21:32;;;;;;;21.40;8.43;;;;;;;2.38;63.79;99657.09;8522448;27;20054;-72
2022/04/18 03:25:33;;;;;;;22.52;7.65;;;;;;;2.33;64.04;99646.31;8511259;27;20038;-73
2022/04/18 03:29:35;;;;;;;23.77;8.93;;;;;;;2.29;64.42;99647.88;8526252;27;20043;-73
2022/04/18 03:33:36;;;;;;;17.40;8.00;;;;;;;2.26;64.71;99643.03;8514302;27;20061;-72
2022/04/18 03:41:56;;;;;;;19.67;8.60;;;;;;;2.12;65.41;99643.31;8498639;27;20051;-73
2022/04/18 03:45:57;;;;;;;23.80;8.60;;;;;;;2.09;65.32;99635.81;8466306;27;20055;-72
2022/04/18 03:49:58;;;;;;;23.73;9.10;;;;;;;2.03;65.66;99643.97;8522555;27;20047;-72
2022/04/18 03:53:59;;;;;;;19.95;8.82;;;;;;;1.94;65.66;99646.22;8508894;27;20039;-73
2022/04/18 03:58:00;;;;;;;21.27;9.15;;;;;;;1.84;65.94;99640.72;8525136;27;20039;-73
2022/04/18 04:02:02;;;;;;;26.30;10.15;;;;;;;1.77;66.02;99634.72;8509808;27;20520;-72
2022/04/18 04:06:03;;;;;;;23.88;8.73;;;;;;;1.77;66.56;99645.38;8516051;27;20049;-74
2022/04/18 04:10:04;;;;;;;22.27;9.18;;;;;;;1.71;66.57;99641.00;8430399;28;20063;-72
2022/04/18 04:14:05;;;;;;;22.60;8.52;;;;;;;1.68;67.32;99646.81;8426208;28;20063;-73
2022/04/18 04:18:06;;;;;;;26.98;7.88;;;;;;;1.61;67.12;99651.44;8448196;28;20055;-73
2022/04/18 04:22:07;;;;;;;22.15;8.60;;;;;;;1.50;67.57;99644.31;8429382;28;20139;-73
2022/04/18 04:26:08;;;;;;;26.52;8.60;;;;;;;1.49;67.67;99653.31;8449954;27;20481;-72
2022/04/18 04:30:10;;;;;;;22.67;10.00;;;;;;;1.56;67.59;99644.19;8462021;27;20127;-73
2022/04/18 04:34:12;;;;;;;22.25;9.98;;;;;;;1.60;67.74;99636.50;8460724;28;20051;-72
2022/04/18 04:38:13;;;;;;;18.15;8.50;;;;;;;1.66;67.64;99643.56;8460230;28;20086;-72
2022/04/18 04:42:15;;;;;;;20.15;9.88;;;;;;;1.67;67.27;99634.53;8498583;27;20453;-73
2022/04/18 04:46:15;;;;;;;22.15;8.90;;;;;;;1.77;67.87;99639.22;8524381;27;20084;-73
2022/04/18 04:50:16;;;;;;;22.00;8.20;;;;;;;1.88;67.30;99635.72;8478773;27;20039;-72
2022/04/18 04:54:17;;;;;;;21.10;8.88;;;;;;;2.04;67.65;99645.59;8472890;27;20508;-74
2022/04/18 04:58:18;;;;;;;21.65;8.23;;;;;;;2.15;67.39;99635.91;8465004;27;20039;-72
2022/04/18 05:02:20;;;;;;;20.40;8.63;;;;;;;2.25;67.36;99641.41;8475836;27;20461;-73
2022/04/18 05:06:21;;;;;;;19.30;7.65;;;;;;;2.38;67.44;99641.09;8451576;27;20100;-73
2022/04/18 05:10:22;;;;;;;23.75;8.23;;;;;;;2.44;67.40;99640.94;8490682;27;20046;-74
2022/04/18 05:14:23;;;;;;;17.52;7.60;;;;;;;2.57;67.54;99639.81;8479987;27;20049;-73
2022/04/18 05:18:23;;;;;;;24.15;8.52;;;;;;;2.65;67.61;99638.56;8486765;27;20062;-72
2022/04/18 05:22:25;;;;;;;20.50;8.32;;;;;;;2.70;67.67;99628.78;8495692;27;20065;-73
2022/04/18 05:26:26;;;;;;;17.90;8.38;;;;;;;2.80;67.95;99636.94;8484581;27;20035;-73
2022/04/18 05:30:27;;;;;;;22.05;8.65;;;;;;;2.87;67.51;99634.91;8483433;27;20646;-73
2022/04/18 05:34:28;;;;;;;20.20;9.57;;;;;;;2.95;67.20;99631.84;8484180;27;20058;-73
2022/04/18 05:38:29;;;;;;;21.42;8.50;;;;;;;3.15;67.96;99649.16;8503808;27;20043;-72
2022/04/18 05:42:30;;;;;;;20.05;9.63;;;;;;;3.15;67.37;99643.81;8519076;27;20711;-72
2022/04/18 05:46:31;;;;;;;19.85;9.85;;;;;;;3.20;67.24;99638.56;8524871;27;20052;-74
2022/04/18 05:50:32;;;;;;;25.38;9.57;;;;;;;3.26;67.63;99642.91;8516628;27;20062;-73
2022/04/18 05:54:33;;;;;;;25.30;9.52;;;;;;;3.36;67.70;99643.03;8523338;27;20367;-72
2022/04/18 05:58:34;;;;;;;26.63;10.98;;;;;;;3.39;67.38;99637.19;8510899;27;20050;-74
2022/04/18 06:02:35;;;;;;;26.27;10.98;;;;;;;3.58;67.51;99640.34;8469831;27;20047;-72
2022/04/18 06:06:36;;;;;;;25.10;10.93;;;;;;;3.67;67.08;99642.31;8521633;27;20459;-73
2022/04/18 06:10:40;;;;;;;19.27;10.25;;;;;;;3.76;67.23;99648.81;8512631;27;20258;-73
2022/04/18 06:14:41;;;;;;;25.67;11.90;;;;;;;3.74;66.83;99650.97;8467228;27;20063;-72
2022/04/18 06:18:42;;;;;;;25.50;11.77;;;;;;;3.81;66.63;99651.56;8517303;27;20042;-72
2022/04/18 06:22:44;;;;;;;27.92;11.90;;;;;;;3.95;66.24;99640.47;8526262;27;20095;-73
2022/04/18 06:26:45;;;;;;;25.95;11.32;;;;;;;4.01;66.13;99639.47;8529705;27;20054;-74
2022/04/18 06:30:46;;;;;;;32.90;13.05;;;;;;;4.21;66.52;99639.66;8498888;27;20051;-73
2022/04/18 06:34:47;;;;;;;26.38;11.70;;;;;;;4.27;66.26;99641.31;8494830;27;20051;-73
2022/04/18 06:38:48;;;;;;;29.15;11.32;;;;;;;4.42;65.98;99641.44;8457109;27;20400;-75
2022/04/18 06:42:50;;;;;;;25.27;11.45;;;;;;;4.50;65.10;99648.16;8528118;27;20058;-73
2022/04/18 06:46:51;;;;;;;26.42;10.80;;;;;;;4.60;64.51;99638.34;8459625;27;20054;-74
2022/04/18 06:50:52;;;;;;;27.85;11.75;;;;;;;4.77;64.32;99640.06;8529668;27;20046;-74
2022/04/18 06:54:53;;;;;;;31.33;11.68;;;;;;;4.86;64.27;99646.59;8520923;27;20461;-74
2022/04/18 06:58:54;;;;;;;27.92;12.48;;;;;;;5.03;64.16;99636.50;8563067;27;20038;-72
2022/04/18 07:02:55;;;;;;;25.70;11.30;;;;;;;5.16;63.19;99641.41;8533304;27;20129;-74
2022/04/18 07:06:56;;;;;;;24.02;11.35;;;;;;;5.29;62.43;99635.56;8518672;27;20094;-73
2022/04/18 07:10:57;;;;;;;23.08;10.52;;;;;;;5.39;62.27;99635.59;8521959;27;20063;-73
2022/04/18 07:14:59;;;;;;;22.30;9.07;;;;;;;5.56;62.01;99634.59;8494316;27;20054;-74
2022/04/18 07:19:00;;;;;;;21.92;9.85;;;;;;;5.71;61.58;99631.97;8519837;27;20071;-73
2022/04/18 07:23:02;;;;;;;19.90;9.15;;;;;;;5.91;61.32;99642.78;8528509;27;20067;-73
2022/04/18 07:27:03;;;;;;;21.77;9.20;;;;;;;6.01;60.74;99634.75;8523924;27;20073;-74
2022/04/18 07:31:06;;;;;;;18.30;8.82;;;;;;;6.11;60.26;99637.44;8509041;27;20050;-76
2022/04/18 07:35:08;;;;;;;23.52;9.20;;;;;;;6.32;59.67;99638.28;8529046;27;20043;-73
2022/04/18 07:39:10;;;;;;;19.50;8.50;;;;;;;6.52;58.04;99634.78;8527969;27;20048;-74
2022/04/18 07:43:11;;;;;;;21.17;9.05;;;;;;;6.63;57.19;99631.00;8508698;27;20499;-73
2022/04/18 07:47:12;;;;;;;18.83;9.25;;;;;;;6.81;56.45;99635.84;8528601;27;20070;-74
2022/04/18 07:55:32;;;;;;;15.45;7.22;;;;;;;7.10;54.84;99644.09;8517575;27;20047;-73
2022/04/18 07:59:33;;;;;;;19.00;8.00;;;;;;;7.17;54.89;99640.06;8533652;27;20050;-74
2022/04/18 08:03:35;;;;;;;19.30;8.10;;;;;;;7.35;54.21;99640.53;8569142;27;20094;-73
2022/04/18 08:07:36;;;;;;;16.80;7.65;;;;;;;7.50;51.66;99632.41;8505186;27;20049;-74
2022/04/18 08:11:37;;;;;;;15.20;6.82;;;;;;;7.57;51.79;99638.28;8533196;27;20432;-74
2022/04/18 08:15:38;;;;;;;16.98;7.18;;;;;;;7.62;52.00;99630.19;8516585;27;20073;-75
2022/04/18 08:19:40;;;;;;;12.02;5.90;;;;;;;7.83;49.95;99637.06;8517277;27;20116;-74
2022/04/18 08:23:42;;;;;;;14.93;6.28;;;;;;;7.87;49.63;99637.34;8513103;27;20137;-74
2022/04/18 08:27:43;;;;;;;15.43;6.43;;;;;;;8.07;49.29;99632.63;8483721;27;20047;-74
2022/04/18 08:31:43;;;;;;;10.57;5.15;;;;;;;8.21;47.60;99632.00;8499753;27;20043;-74
2022/04/18 08:35:44;;;;;;;11.90;5.50;;;;;;;8.35;47.26;99638.38;8525122;27;20054;-74
2022/04/18 08:39:45;;;;;;;9.80;4.47;;;;;;;8.43;45.69;99640.47;8502722;27;20138;-74
2022/04/18 08:43:47;;;;;;;6.78;3.90;;;;;;;8.62;44.42;99630.59;8533405;27;20043;-74
2022/04/18 08:56:28;;;;;;;7.30;3.83;;;;;;;9.26;42.94;99637.50;8517083;27;20046;-74
2022/04/18 09:00:29;;;;;;;9.38;4.35;;;;;;;9.25;42.25;99617.06;8532084;27;20066;-74
2022/04/18 09:04:30;;;;;;;10.05;5.28;;;;;;;9.33;42.23;99616.41;8543806;27;20627;-74
2022/04/18 09:08:42;;;;;;;9.85;4.22;;;;;;;9.50;42.43;99602.47;8468211;27;20126;-74
2022/04/18 09:12:43;;;;;;;8.18;4.10;;;;;;;9.64;41.74;99606.84;8498761;27;20092;-74
2022/04/18 09:16:44;;;;;;;6.82;3.25;;;;;;;9.83;40.09;99603.38;8519477;27;20092;-75
2022/04/18 09:20:51;;;;;;;9.90;4.10;;;;;;;9.93;39.37;99605.91;8497259;27;20046;-75
2022/04/18 09:24:54;;;;;;;6.82;3.20;;;;;;;10.11;38.94;99597.00;8521254;27;20704;-75
2022/04/18 09:29:03;;;;;;;9.13;3.35;;;;;;;10.22;39.49;99584.97;8487853;27;20051;-74
2022/04/18 09:33:07;;;;;;;5.18;2.80;;;;;;;10.32;38.71;99595.59;8524053;27;20054;-74
2022/04/18 09:37:12;;;;;;;5.43;3.25;;;;;;;10.40;38.77;99581.44;8472122;27;20055;-75
2022/04/18 09:41:15;;;;;;;6.93;3.53;;;;;;;10.51;41.16;99576.69;8483138;27;20156;-75
2022/04/18 09:45:19;;;;;;;8.00;3.90;;;;;;;10.47;40.25;99576.44;8454255;28;20054;-74
2022/04/18 09:49:20;;;;;;;8.10;4.00;;;;;;;10.39;39.54;99584.44;8391749;28;20429;-75
2022/04/18 09:53:24;;;;;;;9.32;4.80;;;;;;;10.64;39.46;99575.09;8358464;28;20127;-74
2022/04/18 09:57:27;;;;;;;7.75;3.95;;;;;;;10.95;38.43;99581.53;8446464;27;20079;-74
2022/04/18 10:01:28;;;;;;;7.85;5.18;;;;;;;11.24;38.58;99568.53;8458863;27;20513;-77
2022/04/18 10:05:30;;;;;;;7.55;3.70;;;;;;;11.16;37.43;99569.22;8413803;28;20168;-73
2022/04/18 10:09:31;;;;;;;9.95;4.40;;;;;;;11.00;37.48;99563.31;8462574;27;20050;-75
2022/04/18 10:13:32;;;;;;;8.57;3.70;;;;;;;10.90;37.16;99563.50;8430700;27;20084;-74
2022/04/18 10:17:39;;;;;;;7.95;4.88;;;;;;;11.20;37.86;99555.91;8466003;27;20425;-75
2022/04/18 10:21:44;;;;;;;11.05;6.22;;;;;;;11.29;37.89;99549.50;8474603;27;20043;-75
2022/04/18 10:26:22;;;;;;;9.70;5.15;;;;;;;11.40;37.91;99550.88;8467522;27;20110;-75
2022/04/18 10:30:24;;;;;;;10.98;4.78;;;;;;;11.47;37.18;99541.56;8499871;27;20043;-75
2022/04/18 10:34:31;;;;;;;7.15;3.90;;;;;;;11.29;36.70;99549.50;8478177;27;20043;-75
2022/04/18 10:38:36;;;;;;;8.13;4.35;;;;;;;10.96;35.96;99545.31;8482747;27;20110;-76
2022/04/18 10:42:40;;;;;;;8.20;4.30;;;;;;;11.40;36.50;99537.38;8389924;28;20048;-76
2022/04/18 10:46:43;;;;;;;7.43;3.90;;;;;;;11.75;35.25;99535.00;8389960;28;20044;-76
2022/04/18 10:50:50;;;;;;;7.68;4.22;;;;;;;11.95;34.86;99534.50;8339652;28;20412;-76
2022/04/18 10:55:00;;;;;;;8.85;4.28;;;;;;;12.12;34.41;99545.47;8401800;28;20594;-76
2022/04/18 10:59:02;;;;;;;8.38;4.53;;;;;;;11.89;35.53;99535.75;8423340;28;20044;-75
2022/04/18 11:03:03;;;;;;;8.10;4.85;;;;;;;11.58;35.59;99524.00;8423265;28;20060;-76
2022/04/18 11:07:09;;;;;;;7.57;4.40;;;;;;;11.86;34.79;99520.13;8422974;28;20541;-76
2022/04/18 11:11:17;;;;;;;8.32;4.65;;;;;;;11.62;35.35;99519.59;8429914;28;20465;-75
2022/04/18 11:15:18;;;;;;;6.72;4.18;;;;;;;11.25;35.20;99510.66;8494636;27;20382;-76
2022/04/18 11:19:27;;;;;;;7.97;4.07;;;;;;;11.10;35.79;99508.28;8494575;27;20063;-76
2022/04/18 11:23:28;;;;;;;9.80;4.72;;;;;;;11.57;35.16;99511.59;8462118;27;20051;-76
2022/04/18 11:27:33;;;;;;;8.43;4.22;;;;;;;12.06;35.22;99508.81;8501461;27;20043;-76
2022/04/18 11:31:37;;;;;;;13.27;4.15;;;;;;;12.39;34.99;99516.66;8501550;27;20058;-76
2022/04/18 11:35:39;;;;;;;6.50;4.30;;;;;;;12.55;34.68;99498.88;8501374;27;20542;-75
2022/04/18 11:39:49;;;;;;;8.50;4.28;;;;;;;12.87;35.06;99506.66;8498605;27;20039;-76
2022/04/18 11:43:59;;;;;;;7.20;3.90;;;;;;;13.02;34.10;99492.69;8535306;27;20130;-75
2022/04/18 11:48:03;;;;;;;6.85;4.13;;;;;;;12.98;32.95;99502.56;8535538;27;20050;-73
2022/04/18 11:52:17;;;;;;;5.95;3.72;;;;;;;12.42;33.61;99491.66;8465182;27;20043;-76
2022/04/18 11:56:22;;;;;;;7.78;4.13;;;;;;;12.91;34.41;99472.41;8534847;27;20050;-76
2022/04/18 12:09:13;;;;;;;5.95;3.53;;;;;;;13.35;32.04;99459.75;8534355;27;20056;-76
2022/04/18 12:13:14;;;;;;;9.00;4.20;;;;;;;13.31;32.01;99461.50;8534150;27;20433;-76
2022/04/18 12:17:16;;;;;;;7.25;3.53;;;;;;;13.62;32.87;99451.31;8534123;27;20099;-76
2022/04/18 12:21:20;;;;;;;7.25;3.97;;;;;;;13.94;32.00;99448.06;8515404;27;20038;-76
2022/04/18 12:25:23;;;;;;;9.90;4.50;;;;;;;14.18;31.82;99441.28;8497104;27;20062;-76
2022/04/18 12:29:23;;;;;;;6.07;3.80;;;;;;;14.33;32.16;99427.19;8533904;27;20061;-76
2022/04/18 12:33:26;;;;;;;8.50;3.97;;;;;;;14.41;31.15;99429.09;8532456;27;20046;-74
2022/04/18 12:37:27;;;;;;;8.27;4.10;;;;;;;13.71;30.61;99433.09;8533369;27;20043;-76
2022/04/18 12:41:30;;;;;;;7.53;3.88;;;;;;;13.17;31.58;99431.00;8515122;27;20130;-74
2022/04/18 12:45:52;;;;;;;7.72;4.00;;;;;;;12.87;32.26;99425.34;8496432;27;20051;-76
2022/04/18 12:50:06;;;;;;;7.18;3.67;;;;;;;12.98;31.80;99413.09;8533010;27;20038;-75
2022/04/18 12:54:28;;;;;;;7.47;4.18;;;;;;;13.57;31.44;99410.75;8532976;27;20524;-76
2022/04/18 12:58:37;;;;;;;6.30;3.58;;;;;;;14.01;31.66;99403.34;8480521;27;20047;-76
2022/04/18 13:02:39;;;;;;;12.23;3.87;;;;;;;13.76;31.17;99397.63;8565242;27;20058;-76
2022/04/18 13:06:40;;;;;;;7.55;3.95;;;;;;;13.78;31.38;99400.84;8510470;27;20331;-75
2022/04/18 13:10:41;;;;;;;5.93;3.65;;;;;;;13.90;30.06;99390.13;8521211;27;20042;-75
2022/04/18 13:15:05;;;;;;;8.95;4.63;;;;;;;14.25;30.67;99393.50;8499599;27;20043;-74
2022/04/18 13:19:10;;;;;;;7.93;4.00;;;;;;;14.43;30.52;99382.59;8502219;27;20053;-76
2022/04/18 13:23:11;;;;;;;9.93;4.30;;;;;;;14.61;30.45;99389.53;8533431;27;20488;-76
2022/04/18 13:27:42;;;;;;;7.70;3.50;;;;;;;14.72;29.50;99379.88;8512814;27;20061;-76
2022/04/18 13:31:45;;;;;;;7.70;3.85;;;;;;;15.17;28.37;99380.06;8361098;28;20057;-76
2022/04/18 13:40:06;;;;;;;11.02;4.30;;;;;;;17.09;27.46;99366.28;8342708;28;20403;-76
2022/04/18 13:44:08;;;;;;;7.07;3.83;;;;;;;18.01;26.20;99366.13;8350473;28;20498;-76
2022/04/18 13:48:12;;;;;;;6.85;3.83;;;;;;;17.65;25.19;99366.34;8358443;28;20081;-76
2022/04/18 13:52:13;;;;;;;7.40;4.65;;;;;;;15.53;27.73;99371.28;8372512;28;20048;-76
2022/04/18 13:56:15;;;;;;;6.78;4.38;;;;;;;16.54;26.92;99355.22;8368025;28;20057;-76
2022/04/18 14:00:16;;;;;;;9.48;4.85;;;;;;;18.36;24.89;99349.81;8379437;28;20124;-75
2022/04/18 14:04:20;;;;;;;5.68;3.78;;;;;;;20.40;23.46;99343.41;8351491;28;20056;-75
2022/04/18 14:08:21;;;;;;;9.82;5.03;;;;;;;19.52;23.00;99348.06;8476948;27;20054;-73
2022/04/18 14:12:23;;;;;;;10.15;5.10;;;;;;;17.05;25.35;99343.56;8531231;27;20041;-74
2022/04/18 14:20:43;;;;;;;7.20;4.05;;;;;;;20.33;22.70;99348.78;8498997;27;20446;-76
2022/04/18 14:24:44;;;;;;;7.03;4.18;;;;;;;17.88;23.98;99342.75;8526414;27;20095;-76
2022/04/18 14:28:45;;;;;;;8.57;4.70;;;;;;;17.09;25.83;99328.06;8527755;27;20115;-76
2022/04/18 14:32:46;;;;;;;7.82;4.38;;;;;;;20.22;23.51;99325.84;8536627;27;20047;-76
2022/04/18 14:36:47;;;;;;;7.30;4.13;;;;;;;21.57;20.41;99319.47;8510327;27;20066;-77
2022/04/18 14:40:49;;;;;;;8.73;4.40;;;;;;;21.29;20.89;99318.00;8511240;27;20051;-76
2022/04/18 14:44:52;;;;;;;6.13;4.00;;;;;;;21.98;20.12;99315.59;8459994;27;20116;-75
2022/04/18 14:48:57;;;;;;;5.45;3.90;;;;;;;20.76;21.37;99308.25;8518218;27;20046;-76
2022/04/18 14:52:59;;;;;;;4.85;3.47;;;;;;;18.54;23.05;99309.25;8524260;27;20044;-76
2022/04/18 14:57:00;;;;;;;8.52;4.38;;;;;;;18.50;23.61;99308.34;8478981;27;20767;-76
2022/04/18 15:01:04;;;;;;;6.07;3.33;;;;;;;20.51;20.78;99303.22;8507088;27;20075;-76
2022/04/18 15:05:26;;;;;;;7.95;3.65;;;;;;;21.61;19.75;99301.06;8510022;27;20051;-75
2022/04/18 15:09:30;;;;;;;6.05;3.45;;;;;;;21.61;19.44;99290.06;8431372;28;20043;-76
2022/04/18 15:13:32;;;;;;;5.88;3.75;;;;;;;18.93;21.91;99288.97;8474237;27;20695;-76
2022/04/18 15:17:34;;;;;;;11.45;4.10;;;;;;;17.75;22.81;99283.09;8455136;28;20067;-77
2022/04/18 15:21:37;;;;;;;5.82;3.58;;;;;;;18.99;21.67;99292.22;8443955;28;20052;-76
2022/04/18 15:25:40;;;;;;;6.80;3.75;;;;;;;20.44;20.58;99283.91;8446178;28;20043;-77
2022/04/18 15:29:42;;;;;;;6.05;3.70;;;;;;;19.71;20.88;99287.78;8428024;28;20186;-76
2022/04/18 15:33:44;;;;;;;6.32;3.70;;;;;;;20.03;21.36;99284.78;8472012;27;20051;-77
2022/04/18 15:37:48;;;;;;;7.07;3.88;;;;;;;19.87;21.13;99281.41;8456173;28;20055;-75
2022/04/18 15:41:50;;;;;;;5.57;3.50;;;;;;;20.52;20.58;99263.63;8475532;28;20170;-75
2022/04/18 15:45:51;;;;;;;9.48;5.00;;;;;;;21.24;20.19;99259.84;8441046;27;20141;-77
2022/04/18 15:49:53;;;;;;;5.63;3.97;;;;;;;21.14;20.40;99266.00;8515501;27;20125;-76
2022/04/18 15:53:54;;;;;;;5.90;3.53;;;;;;;19.79;21.12;99270.31;8514784;27;20039;-76
2022/04/18 15:57:56;;;;;;;7.00;3.90;;;;;;;19.65;21.47;99274.75;8515724;27;20492;-77
2022/04/18 16:01:57;;;;;;;10.85;5.20;;;;;;;18.10;22.81;99273.81;8504700;27;20397;-76
2022/04/18 16:05:59;;;;;;;12.20;5.72;;;;;;;16.50;25.11;99283.44;8466531;27;20051;-77
2022/04/18 16:10:00;;;;;;;7.15;4.35;;;;;;;15.79;25.78;99281.97;8520721;27;20050;-77
2022/04/18 16:14:01;;;;;;;20.38;9.52;;;;;;;15.20;26.21;99281.44;8508459;27;20055;-76
2022/04/18 16:18:03;;;;;;;16.40;7.13;;;;;;;14.74;26.76;99275.13;8510109;27;20051;-75
2022/04/18 16:22:05;;;;;;;12.10;5.82;;;;;;;14.86;26.42;99271.66;8478882;27;20055;-76
2022/04/18 16:26:06;;;;;;;9.27;3.95;;;;;;;14.61;26.63;99275.38;8462207;27;20047;-76
2022/04/18 16:34:28;;;;;;;11.98;4.22;;;;;;;14.16;26.79;99267.00;8508198;27;20511;-76
2022/04/18 16:38:32;;;;;;;9.80;3.95;;;;;;;14.23;27.07;99270.00;8472527;27;20236;-76
2022/04/18 16:46:53;;;;;;;9.27;5.28;;;;;;;13.56;26.87;99262.63;8469454;27;20039;-76
2022/04/18 16:50:54;;;;;;;12.10;5.40;;;;;;;13.34;27.40;99262.84;8509079;27;20567;-76
2022/04/18 16:54:57;;;;;;;8.40;3.80;;;;;;;13.03;27.92;99271.97;8502177;27;20047;-76
2022/04/18 16:58:59;;;;;;;7.88;3.78;;;;;;;12.84;28.67;99268.81;8524933;27;20051;-78
2022/04/18 17:03:00;;;;;;;9.82;3.33;;;;;;;12.57;28.54;99260.97;8513494;27;20039;-78
2022/04/18 17:07:03;;;;;;;9.45;4.85;;;;;;;12.47;28.71;99270.22;8510271;27;20059;-78
2022/04/18 17:11:05;;;;;;;7.75;4.30;;;;;;;12.30;28.76;99258.56;8438555;27;20093;-77
2022/04/18 17:15:09;;;;;;;7.05;4.18;;;;;;;11.98;29.22;99263.25;8515461;27;20062;-76
2022/04/18 17:19:10;;;;;;;7.70;5.05;;;;;;;11.67;29.74;99254.34;8470792;27;20043;-76
2022/04/18 17:23:11;;;;;;;6.05;3.40;;;;;;;11.57;29.75;99262.75;8440336;27;20100;-76
2022/04/18 17:27:12;;;;;;;7.43;3.80;;;;;;;11.40;30.83;99258.84;8490697;27;20553;-76
2022/04/18 17:31:16;;;;;;;9.10;4.28;;;;;;;11.35;31.01;99272.50;8519742;27;20062;-77
2022/04/18 17:35:17;;;;;;;10.68;5.10;;;;;;;11.23;30.69;99261.44;8518901;27;20521;-78
2022/04/18 17:39:18;;;;;;;16.60;8.45;;;;;;;11.12;31.35;99257.38;8473492;27;20038;-80
2022/04/18 17:43:21;;;;;;;12.80;6.13;;;;;;;11.04;31.75;99260.84;8510375;27;20035;-76
2022/04/18 17:47:22;;;;;;;12.30;4.35;;;;;;;10.88;32.52;99256.91;8501265;27;20043;-78
2022/04/18 17:51:23;;;;;;;16.45;6.93;;;;;;;10.67;33.22;99261.19;8512772;27;20047;-77
2022/04/18 17:59:44;;;;;;;13.70;3.92;;;;;;;10.42;34.49;99260.66;8525039;27;20039;-77
2022/04/18 18:03:45;;;;;;;7.28;2.80;;;;;;;10.22;35.24;99261.09;8509459;27;20523;-76
2022/04/18 18:07:46;;;;;;;6.43;2.50;;;;;;;10.00;36.05;99263.66;8520202;27;20046;-75
2022/04/18 18:11:47;;;;;;;9.07;4.65;;;;;;;9.77;37.32;99248.50;8483761;27;20059;-76
2022/04/18 18:15:49;;;;;;;10.70;5.43;;;;;;;9.58;38.47;99252.06;8475710;27;20058;-76
2022/04/18 18:19:49;;;;;;;17.80;7.40;;;;;;;9.37;38.79;99256.25;8463869;27;20501;-76
2022/04/18 18:23:51;;;;;;;15.27;7.18;;;;;;;9.19;40.03;99259.81;8509277;27;20059;-75
2022/04/18 18:27:55;;;;;;;10.80;5.43;;;;;;;9.10;40.77;99256.16;8515228;27;20039;-76
2022/04/18 18:31:59;;;;;;;11.70;4.30;;;;;;;9.02;41.87;99259.56;8498581;27;20054;-76
2022/04/18 18:36:02;;;;;;;8.50;3.78;;;;;;;8.93;42.03;99255.94;8507828;27;20050;-76
2022/04/18 18:40:09;;;;;;;11.45;4.22;;;;;;;8.81;42.35;99254.50;8492505;27;20047;-76
2022/04/18 18:44:11;;;;;;;13.07;3.97;;;;;;;8.72;43.13;99253.56;8466676;27;20039;-75
2022/04/18 18:48:14;;;;;;;9.73;3.70;;;;;;;8.61;43.60;99257.50;8510089;27;20046;-76
2022/04/18 18:52:24;;;;;;;7.03;3.42;;;;;;;8.61;44.27;99260.19;8515623;27;20036;-76
2022/04/18 18:56:25;;;;;;;8.25;3.33;;;;;;;8.54;44.44;99254.38;8478478;27;20050;-75
2022/04/18 19:00:30;;;;;;;6.28;3.33;;;;;;;8.45;45.19;99248.03;8504995;27;20034;-75
2022/04/18 19:04:32;;;;;;;8.43;3.33;;;;;;;8.41;45.89;99244.31;8507511;27;20503;-76
2022/04/18 19:08:33;;;;;;;6.53;3.15;;;;;;;8.36;46.19;99236.31;8519808;27;20038;-76
2022/04/18 19:12:35;;;;;;;9.27;3.33;;;;;;;8.28;46.64;99234.25;8508874;27;20134;-75
2022/04/18 19:29:34;;;;;;;8.25;3.05;;;;;;;7.93;47.97;99222.84;8513455;27;20047;-76
2022/04/18 19:33:36;;;;;;;6.55;3.10;;;;;;;7.89;48.48;99221.84;8515173;27;20035;-75
2022/04/18 19:37:37;;;;;;;9.15;3.25;;;;;;;7.89;48.70;99221.84;8439790;27;20130;-76
2022/04/18 19:41:39;;;;;;;6.65;3.70;;;;;;;7.83;49.31;99211.44;8513094;27;20051;-76
2022/04/18 19:45:40;;;;;;;8.45;3.53;;;;;;;7.77;49.56;99213.41;8516705;27;20031;-76
2022/04/18 19:49:41;;;;;;;7.68;3.40;;;;;;;7.75;49.30;99204.81;8481320;27;20038;-75
2022/04/18 19:53:49;;;;;;;14.73;3.75;;;;;;;7.65;50.07;99210.31;8491486;27;20075;-76
2022/04/18 19:57:50;;;;;;;7.75;3.88;;;;;;;7.59;50.37;99212.25;8514056;27;20128;-75
2022/04/18 20:01:51;;;;;;;8.75;3.80;;;;;;;7.51;50.85;99198.63;8515689;27;20045;-75
2022/04/18 20:05:56;;;;;;;10.07;4.00;;;;;;;7.46;51.55;99201.38;8457778;27;20407;-76
2022/04/18 20:09:58;;;;;;;12.55;4.55;;;;;;;7.25;52.78;99191.94;8510996;27;20073;-75